Busick, North Carolina
Current Conditions -  °F | °C
As of 11:54 PM on Saturday 22 Nov 2014 (Local Time) from KBUY Reporting Station
Clear Clear  
Wind Chill: 34°   Ceiling: Unl
Heat Index: 34°   Visibility: 10mi
Dew Point: 21°   Wind: 0mph
Humidity: 59%   Direction: NA
Pressure: 30.31"   Gusts: NA
Location:  36.2136°N, 79.6775°W
Report Text: KBUY 230454Z AUTO 00000KT 10SM CLR 01/M06 A3031 RMK AO2 SLP266 T00111061 401171072
Loading
Personal Weather Stations






























Interactive Weather Map New forecast layout! Learn more

10-Day Weather Forecast

Advertisements
Track Severe Weather on mobile